Terminal Aerodrome Forecast
Issued by NWS

Home | Current Version | Previous Version | Text Only | Print | Product List | Glossary On
Versions: 1 2 3 4 5 6 7 8 9 10 11 12 13 14 15 16 17 18 19 20 21 22
000
FTUS41 KPHI 271731
TAFMIV
TAF
KMIV 271731Z 2718/2818 17005KT P6SM SCT050
      TEMPO 2718/2719 VRB08KT 2SM -TSRA BKN030CB
     FM280100 VRB03KT P6SM BKN250
     FM280800 VRB03KT 4SM BR BKN250
     FM281400 22004KT P6SM BKN070=

USA.gov is the U.S. government's official web portal to all federal, state and local government web resources and services.